Time;durP1;ratioP1;P1;durP2;ratioP2;P2;SDS_P1;SDS_P2;PMS_P1;PMS_P2;Temp;Humidity;BMP_temperature;BMP_pressure;BME280_temperature;BME280_humidity;BME280_pressure;Samples;Min_cycle;Max_cycle;Signal;HPM_P1;HPM_P2
2022/03/05 00:00:52;;;;;;;0.40;0.40;;;0.00;99.90;;;;;;5094120;28;20091;-73
2022/03/05 00:03:18;;;;;;;0.30;0.30;;;-0.70;99.90;;;;;;5092479;28;20047;-74
2022/03/05 00:05:44;;;;;;;0.40;0.40;;;-0.80;99.90;;;;;;5093814;28;20075;-72
2022/03/05 00:08:10;;;;;;;0.40;0.40;;;-0.80;99.90;;;;;;5093910;28;20086;-74
2022/03/05 00:10:36;;;;;;;0.40;0.40;;;-0.80;99.90;;;;;;5093813;28;20404;-73
2022/03/05 00:13:02;;;;;;;0.40;0.40;;;-0.80;99.90;;;;;;5093680;28;20445;-75
2022/03/05 00:15:28;;;;;;;0.40;0.40;;;-0.80;99.90;;;;;;5093786;28;20040;-75
2022/03/05 00:17:55;;;;;;;0.40;0.40;;;-0.90;99.90;;;;;;5093811;28;20361;-75
2022/03/05 00:20:22;;;;;;;0.40;0.40;;;-0.90;99.90;;;;;;5093698;28;20047;-73
2022/03/05 00:22:48;;;;;;;0.30;0.30;;;-0.90;99.90;;;;;;5093677;28;20051;-73
2022/03/05 00:25:14;;;;;;;0.40;0.40;;;-1.00;99.90;;;;;;5093833;28;20040;-73
2022/03/05 00:27:41;;;;;;;0.30;0.30;;;-1.00;99.90;;;;;;5093660;28;20499;-74
2022/03/05 00:30:07;;;;;;;0.40;0.40;;;-1.00;99.90;;;;;;5093755;28;20051;-73
2022/03/05 00:32:33;;;;;;;0.40;0.40;;;-1.10;99.90;;;;;;5093588;28;20048;-73
2022/03/05 00:34:59;;;;;;;0.40;0.40;;;-1.10;99.90;;;;;;5093466;28;20396;-73
2022/03/05 00:37:24;;;;;;;0.40;0.40;;;-1.20;99.90;;;;;;5093604;28;20044;-74
2022/03/05 00:39:50;;;;;;;0.40;0.40;;;-1.20;99.90;;;;;;5093640;28;20048;-74
2022/03/05 00:42:16;;;;;;;0.40;0.40;;;-1.30;99.90;;;;;;5093501;28;20048;-73
2022/03/05 00:44:41;;;;;;;0.40;0.40;;;-0.70;99.90;;;;;;5093565;28;20123;-75
2022/03/05 00:47:07;;;;;;;0.40;0.40;;;-1.40;99.90;;;;;;5095399;28;20047;-73
2022/03/05 00:49:34;;;;;;;0.40;0.40;;;-1.40;99.90;;;;;;5097421;28;20048;-73
2022/03/05 00:52:00;;;;;;;0.40;0.40;;;-1.40;99.90;;;;;;5097382;28;20040;-73
2022/03/05 00:54:25;;;;;;;0.40;0.40;;;-1.40;99.90;;;;;;5097174;28;20476;-74
2022/03/05 00:56:51;;;;;;;0.40;0.40;;;-1.40;99.90;;;;;;5097249;28;20063;-73
2022/03/05 00:59:16;;;;;;;0.40;0.40;;;-1.30;99.90;;;;;;5097284;28;20040;-73
2022/03/05 01:01:42;;;;;;;0.40;0.40;;;-1.40;99.90;;;;;;5097283;28;20048;-74
2022/03/05 01:04:08;;;;;;;0.40;0.40;;;-1.50;99.90;;;;;;5096286;28;20080;-74
2022/03/05 01:06:34;;;;;;;0.40;0.40;;;-1.40;99.90;;;;;;5097088;28;20040;-73
2022/03/05 01:09:01;;;;;;;0.40;0.40;;;-1.40;99.90;;;;;;5097499;28;20040;-74
2022/03/05 01:11:27;;;;;;;0.40;0.40;;;-0.70;99.90;;;;;;5096869;28;20040;-74
2022/03/05 01:13:52;;;;;;;0.40;0.40;;;-1.40;99.90;;;;;;5097536;28;20066;-73
2022/03/05 01:16:18;;;;;;;0.40;0.40;;;-1.40;99.90;;;;;;5096994;28;20040;-74
2022/03/05 01:18:44;;;;;;;0.40;0.40;;;-1.00;99.90;;;;;;5096985;28;20073;-73
2022/03/05 01:21:10;;;;;;;0.40;0.40;;;-1.50;99.90;;;;;;5096860;28;20055;-72
2022/03/05 01:23:35;;;;;;;0.40;0.40;;;-1.20;99.90;;;;;;5095629;28;20077;-74
2022/03/05 01:26:01;;;;;;;0.40;0.40;;;-1.50;99.90;;;;;;5096735;28;20086;-73
2022/03/05 01:28:27;;;;;;;0.40;0.40;;;-1.50;99.90;;;;;;5096773;28;20127;-74
2022/03/05 01:30:52;;;;;;;0.40;0.40;;;-1.50;99.90;;;;;;5096803;28;20106;-74
2022/03/05 01:33:18;;;;;;;0.40;0.40;;;-1.70;99.90;;;;;;5096533;28;20084;-75
2022/03/05 01:35:45;;;;;;;0.40;0.40;;;-1.60;99.90;;;;;;5096522;28;20051;-74
2022/03/05 01:38:10;;;;;;;0.40;0.40;;;-1.60;99.90;;;;;;5096345;28;20472;-73
2022/03/05 01:40:38;;;;;;;0.40;0.40;;;-1.60;99.90;;;;;;5096631;28;20046;-74
2022/03/05 01:43:05;;;;;;;0.40;0.40;;;-1.60;99.90;;;;;;5096438;28;20097;-75
2022/03/05 01:45:31;;;;;;;0.40;0.40;;;-2.00;99.90;;;;;;5096400;28;20123;-75
2022/03/05 01:47:57;;;;;;;0.40;0.40;;;-1.10;99.90;;;;;;5096344;28;20297;-72
2022/03/05 01:50:23;;;;;;;0.40;0.40;;;-1.70;99.90;;;;;;5096248;28;20048;-74
2022/03/05 01:52:49;;;;;;;0.40;0.40;;;-1.10;99.90;;;;;;5096322;28;20500;-73
2022/03/05 01:55:15;;;;;;;0.40;0.40;;;-1.70;99.90;;;;;;5096507;28;20044;-73
2022/03/05 01:57:40;;;;;;;0.40;0.40;;;-1.70;99.90;;;;;;5094445;28;20044;-74
2022/03/05 02:00:08;;;;;;;0.40;0.40;;;-1.10;99.90;;;;;;5096160;28;20035;-73
2022/03/05 02:02:34;;;;;;;0.40;0.40;;;-1.80;99.90;;;;;;5094588;28;20185;-73
2022/03/05 02:04:59;;;;;;;0.40;0.40;;;-1.80;99.90;;;;;;5096045;28;20044;-73
2022/03/05 02:07:25;;;;;;;0.40;0.40;;;-1.40;99.90;;;;;;5094764;28;20384;-74
2022/03/05 02:09:51;;;;;;;0.40;0.40;;;-1.10;99.90;;;;;;5096105;28;20036;-75
2022/03/05 02:12:17;;;;;;;0.40;0.40;;;-1.80;99.90;;;;;;5095856;28;20109;-74
2022/03/05 02:14:43;;;;;;;0.40;0.40;;;-0.70;99.90;;;;;;5096012;28;20048;-74
2022/03/05 02:17:08;;;;;;;0.40;0.40;;;-1.80;99.90;;;;;;5094655;28;20461;-72
2022/03/05 02:19:34;;;;;;;0.40;0.40;;;-1.80;99.90;;;;;;5095527;28;20050;-73
2022/03/05 02:21:59;;;;;;;0.40;0.40;;;-1.70;99.90;;;;;;5096242;28;20055;-74
2022/03/05 02:24:31;;;;;;;0.40;0.40;;;-1.80;99.90;;;;;;5095667;28;20387;-75
2022/03/05 02:26:58;;;;;;;0.40;0.40;;;-1.80;99.90;;;;;;5095897;28;20040;-73
2022/03/05 02:29:24;;;;;;;0.40;0.40;;;-1.80;99.90;;;;;;5095701;28;20503;-74
2022/03/05 02:31:50;;;;;;;0.40;0.40;;;-1.80;99.90;;;;;;5095668;28;20044;-75
2022/03/05 02:34:15;;;;;;;0.40;0.40;;;-1.80;99.90;;;;;;5095564;28;20101;-74
2022/03/05 02:36:41;;;;;;;0.40;0.40;;;-1.80;99.90;;;;;;5095401;28;20040;-74
2022/03/05 02:39:06;;;;;;;0.40;0.40;;;-1.80;99.90;;;;;;5095502;28;20036;-75
2022/03/05 02:41:32;;;;;;;0.40;0.40;;;-1.80;99.90;;;;;;5094328;28;20126;-73
2022/03/05 02:43:59;;;;;;;0.40;0.40;;;-1.80;99.90;;;;;;5095314;28;20451;-74
2022/03/05 02:46:28;;;;;;;0.40;0.40;;;-1.70;99.90;;;;;;5095251;28;20502;-74
2022/03/05 02:48:53;;;;;;;0.40;0.40;;;-1.70;99.90;;;;;;5095214;28;20048;-74
2022/03/05 02:51:20;;;;;;;0.40;0.40;;;-1.70;99.90;;;;;;5095241;28;20047;-74
2022/03/05 02:53:46;;;;;;;;;;;-1.70;99.90;;;;;;5095724;28;20044;-74
2022/03/05 02:56:11;;;;;;;0.40;0.40;;;-1.50;99.90;;;;;;5095248;28;19920;-74
2022/03/05 02:58:37;;;;;;;0.40;0.40;;;-1.70;99.90;;;;;;5095027;28;20465;-75
2022/03/05 03:01:03;;;;;;;0.40;0.40;;;-1.50;99.90;;;;;;5095052;28;20040;-75
2022/03/05 03:03:29;;;;;;;0.40;0.40;;;-1.70;99.90;;;;;;5094517;28;20040;-75
2022/03/05 03:05:54;;;;;;;0.40;0.40;;;-1.70;99.90;;;;;;5094934;28;20066;-74
2022/03/05 03:08:20;;;;;;;0.38;0.38;;;-1.60;99.90;;;;;;5094457;28;20048;-74
2022/03/05 03:10:45;;;;;;;0.40;0.40;;;-1.70;99.90;;;;;;5094251;28;20453;-75
2022/03/05 03:13:11;;;;;;;0.40;0.40;;;-1.70;99.90;;;;;;5095154;28;20064;-76
2022/03/05 03:15:36;;;;;;;0.40;0.40;;;-1.70;99.90;;;;;;5097235;28;20491;-74
2022/03/05 03:18:02;;;;;;;0.40;0.40;;;-1.70;99.90;;;;;;5095230;28;20384;-74
2022/03/05 03:20:28;;;;;;;0.40;0.40;;;-1.70;99.90;;;;;;5097564;28;20216;-74
2022/03/05 03:22:54;;;;;;;0.40;0.40;;;-1.70;99.90;;;;;;5096167;28;20044;-74
2022/03/05 03:25:20;;;;;;;0.40;0.40;;;-1.70;99.90;;;;;;5094840;28;20051;-74
2022/03/05 03:27:45;;;;;;;0.40;0.40;;;-1.20;99.90;;;;;;5094543;28;20036;-74
2022/03/05 03:30:12;;;;;;;0.40;0.40;;;-1.70;99.90;;;;;;5094528;28;20093;-74
2022/03/05 03:32:38;;;;;;;0.40;0.40;;;-1.80;99.90;;;;;;5094514;28;20083;-75
2022/03/05 03:35:06;;;;;;;0.40;0.40;;;-1.80;99.90;;;;;;5094131;28;20044;-75
2022/03/05 03:37:32;;;;;;;0.40;0.40;;;-1.80;99.90;;;;;;5094433;28;20047;-75
2022/03/05 03:39:58;;;;;;;0.40;0.40;;;-1.70;99.90;;;;;;5094284;28;20044;-75
2022/03/05 03:42:25;;;;;;;0.40;0.40;;;-1.80;99.90;;;;;;5094333;28;20126;-74
2022/03/05 03:44:52;;;;;;;0.40;0.40;;;-1.90;99.90;;;;;;5094244;28;20048;-75
2022/03/05 03:47:18;;;;;;;0.40;0.40;;;-1.90;99.90;;;;;;5094593;28;20040;-73
2022/03/05 03:49:44;;;;;;;0.40;0.40;;;-1.90;99.90;;;;;;5094615;28;20044;-74
2022/03/05 03:52:10;;;;;;;0.40;0.40;;;-1.90;99.90;;;;;;5093912;28;20547;-74
2022/03/05 03:54:36;;;;;;;0.40;0.40;;;-1.90;99.90;;;;;;5094058;28;20403;-75
2022/03/05 03:57:02;;;;;;;0.40;0.40;;;-1.90;99.90;;;;;;5093950;28;20040;-73
2022/03/05 03:59:27;;;;;;;0.40;0.40;;;-1.90;99.90;;;;;;5094034;28;20047;-74
2022/03/05 04:01:53;;;;;;;0.40;0.40;;;-1.90;99.90;;;;;;5093902;28;20456;-75
2022/03/05 04:04:18;;;;;;;0.45;0.45;;;-1.90;99.90;;;;;;5093932;28;20391;-74
2022/03/05 04:09:28;;;;;;;0.40;0.40;;;-1.90;99.90;;;;;;5093932;28;20130;-74
2022/03/05 04:11:53;;;;;;;0.40;0.40;;;-2.00;99.90;;;;;;5093960;28;20503;-75
2022/03/05 04:14:19;;;;;;;0.40;0.40;;;-2.00;99.90;;;;;;5093927;28;20048;-74
2022/03/05 04:16:45;;;;;;;0.40;0.40;;;-2.00;99.90;;;;;;5093713;28;20039;-73
2022/03/05 04:19:10;;;;;;;0.40;0.40;;;-2.00;99.90;;;;;;5094055;28;20048;-74
2022/03/05 04:21:36;;;;;;;0.40;0.40;;;-2.00;99.90;;;;;;5097243;28;20498;-74
2022/03/05 04:24:02;;;;;;;0.40;0.40;;;-2.00;99.90;;;;;;5098028;28;20052;-74
2022/03/05 04:26:28;;;;;;;0.40;0.40;;;-2.00;99.90;;;;;;5098260;28;20385;-74
2022/03/05 04:28:53;;;;;;;0.40;0.40;;;-2.10;99.90;;;;;;5097907;28;20052;-74
2022/03/05 04:31:19;;;;;;;0.50;0.50;;;-2.00;99.90;;;;;;5096233;28;20059;-73
2022/03/05 04:33:44;;;;;;;0.40;0.40;;;-2.00;99.90;;;;;;5098419;28;20044;-75
2022/03/05 04:36:10;;;;;;;0.40;0.40;;;-2.10;99.90;;;;;;5097769;28;20480;-74
2022/03/05 04:38:35;;;;;;;0.40;0.40;;;-2.10;99.90;;;;;;5097752;28;20047;-75
2022/03/05 04:41:01;;;;;;;0.40;0.40;;;-2.10;99.90;;;;;;5097760;28;20044;-75
2022/03/05 04:43:27;;;;;;;0.50;0.50;;;-2.10;99.90;;;;;;5097602;28;20040;-74
2022/03/05 04:45:52;;;;;;;0.40;0.40;;;-2.20;99.90;;;;;;5097470;28;20051;-74
2022/03/05 04:48:18;;;;;;;0.40;0.40;;;-2.20;99.90;;;;;;5096322;28;20051;-74
2022/03/05 04:50:46;;;;;;;0.40;0.40;;;-2.20;99.90;;;;;;5097465;28;20044;-73
2022/03/05 04:53:11;;;;;;;0.47;0.47;;;-2.20;99.90;;;;;;5097446;28;20415;-73
2022/03/05 04:55:37;;;;;;;0.40;0.40;;;-2.20;99.90;;;;;;5097252;28;20036;-74
2022/03/05 04:58:03;;;;;;;0.40;0.40;;;-2.20;99.90;;;;;;5096228;28;20051;-73
2022/03/05 05:00:28;;;;;;;0.40;0.40;;;-2.30;99.90;;;;;;5097412;28;20052;-73
2022/03/05 05:02:54;;;;;;;0.40;0.40;;;-2.30;99.90;;;;;;5097806;28;20067;-74
2022/03/05 05:05:20;;;;;;;0.40;0.40;;;-2.30;99.90;;;;;;5097458;28;20123;-74
2022/03/05 05:07:46;;;;;;;0.40;0.40;;;-2.30;99.90;;;;;;5097122;28;20135;-74
2022/03/05 05:10:12;;;;;;;0.40;0.40;;;-2.30;99.90;;;;;;5097079;28;20044;-74
2022/03/05 05:12:37;;;;;;;0.40;0.40;;;-2.30;99.90;;;;;;5096990;28;20052;-76
2022/03/05 05:15:04;;;;;;;0.43;0.43;;;-2.30;99.90;;;;;;5096961;28;20052;-74
2022/03/05 05:17:37;;;;;;;0.43;0.43;;;-2.30;99.90;;;;;;5096694;28;20040;-73
2022/03/05 05:20:05;;;;;;;0.40;0.40;;;-2.30;99.90;;;;;;5096986;28;20127;-74
2022/03/05 05:22:32;;;;;;;0.40;0.40;;;-2.20;99.90;;;;;;5096872;28;20055;-74
2022/03/05 05:24:59;;;;;;;0.40;0.40;;;-2.20;99.90;;;;;;5096802;28;20052;-74
2022/03/05 05:27:24;;;;;;;0.40;0.40;;;-2.30;99.90;;;;;;5096666;28;20040;-75
2022/03/05 05:29:50;;;;;;;0.40;0.40;;;-2.20;99.90;;;;;;5096644;28;20088;-75
2022/03/05 05:32:17;;;;;;;0.40;0.40;;;-2.20;99.90;;;;;;5095492;28;20085;-74
2022/03/05 05:34:43;;;;;;;0.40;0.40;;;-2.20;99.90;;;;;;5096638;28;20542;-73
2022/03/05 05:37:09;;;;;;;0.40;0.40;;;-2.20;99.90;;;;;;5096576;28;20067;-73
2022/03/05 05:39:35;;;;;;;0.40;0.40;;;-2.20;99.90;;;;;;5096609;28;20472;-74
2022/03/05 05:42:00;;;;;;;0.40;0.40;;;-2.20;99.90;;;;;;5096456;28;20055;-73
2022/03/05 05:44:26;;;;;;;0.40;0.40;;;-2.20;99.90;;;;;;5096453;28;20046;-73
2022/03/05 05:46:51;;;;;;;0.50;0.50;;;-2.20;99.90;;;;;;5096811;28;20048;-73
2022/03/05 05:49:17;;;;;;;0.40;0.40;;;-2.20;99.90;;;;;;5096381;28;20080;-73
2022/03/05 05:51:43;;;;;;;0.40;0.40;;;-2.20;99.90;;;;;;5096319;28;20075;-74
2022/03/05 05:54:08;;;;;;;0.40;0.40;;;-2.20;99.90;;;;;;5095207;28;20051;-75
2022/03/05 05:56:34;;;;;;;0.40;0.40;;;-2.20;99.90;;;;;;5096344;28;20464;-74
2022/03/05 05:59:01;;;;;;;0.40;0.40;;;-2.30;99.90;;;;;;5096151;28;20127;-74
2022/03/05 06:01:26;;;;;;;0.40;0.40;;;-2.30;99.90;;;;;;5096135;28;20079;-74
2022/03/05 06:03:53;;;;;;;0.40;0.40;;;-2.30;99.90;;;;;;5096237;28;20488;-74
2022/03/05 06:06:20;;;;;;;0.50;0.50;;;-2.30;99.90;;;;;;5096039;28;20079;-74
2022/03/05 06:08:46;;;;;;;0.40;0.40;;;-2.30;99.90;;;;;;5096057;28;20043;-75
2022/03/05 06:11:11;;;;;;;0.50;0.50;;;-2.30;99.90;;;;;;5096106;28;20040;-73
2022/03/05 06:13:37;;;;;;;0.47;0.47;;;-2.30;99.90;;;;;;5096458;28;20063;-74
2022/03/05 06:16:03;;;;;;;0.40;0.40;;;-2.20;99.90;;;;;;5095856;28;20150;-74
2022/03/05 06:18:29;;;;;;;0.40;0.40;;;-2.30;99.90;;;;;;5095909;28;20044;-75
2022/03/05 06:20:55;;;;;;;0.40;0.40;;;-2.30;99.90;;;;;;5095730;28;20063;-72
2022/03/05 06:23:21;;;;;;;0.40;0.40;;;-2.30;99.90;;;;;;5095775;28;20040;-74
2022/03/05 06:25:46;;;;;;;0.40;0.40;;;-2.30;99.90;;;;;;5095785;28;20032;-75
2022/03/05 06:28:12;;;;;;;0.40;0.40;;;-2.30;99.90;;;;;;5095664;28;20134;-75
2022/03/05 06:30:38;;;;;;;0.40;0.40;;;-2.20;99.90;;;;;;5095575;28;20056;-75
2022/03/05 06:33:04;;;;;;;0.40;0.40;;;-2.20;99.90;;;;;;5095529;28;20051;-74
2022/03/05 06:35:29;;;;;;;0.40;0.40;;;-2.10;99.90;;;;;;5095569;28;20040;-74
2022/03/05 06:37:55;;;;;;;0.40;0.40;;;-2.10;99.90;;;;;;5094158;28;20056;-75
2022/03/05 06:40:21;;;;;;;0.50;0.50;;;-2.10;99.90;;;;;;5095391;28;20136;-76
2022/03/05 06:42:47;;;;;;;0.50;0.50;;;-2.00;99.90;;;;;;5095277;28;20140;-75
2022/03/05 06:45:12;;;;;;;0.40;0.40;;;-2.00;99.90;;;;;;5095237;28;20147;-74
2022/03/05 06:47:39;;;;;;;0.40;0.40;;;-2.00;99.90;;;;;;5095233;28;20531;-74
2022/03/05 06:50:07;;;;;;;0.40;0.40;;;-2.00;99.90;;;;;;5095165;28;20054;-75
2022/03/05 06:52:33;;;;;;;0.40;0.40;;;-2.00;99.90;;;;;;5094978;28;20131;-75
2022/03/05 06:54:59;;;;;;;0.40;0.40;;;-1.90;99.90;;;;;;5094783;28;20071;-74
2022/03/05 06:57:25;;;;;;;0.43;0.43;;;-1.90;99.90;;;;;;5095101;28;20040;-75
2022/03/05 06:59:50;;;;;;;0.40;0.40;;;-1.90;99.90;;;;;;5094893;28;20089;-75
2022/03/05 07:02:16;;;;;;;0.40;0.40;;;-1.80;99.90;;;;;;5094984;28;20088;-75
2022/03/05 07:04:42;;;;;;;0.40;0.40;;;-1.30;99.90;;;;;;5095216;28;20044;-76
2022/03/05 07:07:07;;;;;;;0.40;0.40;;;-1.70;99.90;;;;;;5094845;28;20042;-75
2022/03/05 07:09:33;;;;;;;0.50;0.50;;;-1.70;99.90;;;;;;5094824;28;20127;-75
2022/03/05 07:11:59;;;;;;;0.40;0.40;;;-1.60;99.90;;;;;;5094815;28;20050;-74
2022/03/05 07:14:25;;;;;;;0.40;0.40;;;-1.60;99.90;;;;;;5094786;28;20434;-75
2022/03/05 07:16:51;;;;;;;0.40;0.40;;;-1.60;99.90;;;;;;5094685;28;20036;-75
2022/03/05 07:19:16;;;;;;;0.40;0.40;;;-1.50;99.90;;;;;;5094703;28;20055;-75
2022/03/05 07:21:42;;;;;;;0.40;0.40;;;-1.50;99.90;;;;;;5094829;28;20051;-73
2022/03/05 07:24:10;;;;;;;0.40;0.40;;;-1.30;99.90;;;;;;5094521;28;20137;-75
2022/03/05 07:26:36;;;;;;;0.40;0.40;;;-1.40;99.90;;;;;;5094441;28;20047;-76
2022/03/05 07:29:02;;;;;;;0.40;0.40;;;-1.30;99.90;;;;;;5094335;28;20044;-77
2022/03/05 07:31:28;;;;;;;0.40;0.40;;;-1.20;99.90;;;;;;5094488;28;20048;-75
2022/03/05 07:33:53;;;;;;;0.40;0.40;;;-1.10;99.90;;;;;;5094870;28;20036;-77
2022/03/05 07:36:21;;;;;;;0.40;0.40;;;-1.10;99.90;;;;;;5094617;28;20044;-76
2022/03/05 07:38:47;;;;;;;0.40;0.40;;;-1.00;99.90;;;;;;5094164;28;20055;-77
2022/03/05 07:41:13;;;;;;;0.40;0.40;;;-0.90;99.90;;;;;;5094192;28;20040;-76
2022/03/05 07:43:39;;;;;;;0.40;0.40;;;-0.70;99.90;;;;;;5094217;28;20059;-76
2022/03/05 07:46:05;;;;;;;0.40;0.40;;;-0.70;99.90;;;;;;5094227;28;20044;-79
2022/03/05 07:48:31;;;;;;;0.40;0.40;;;-0.60;99.90;;;;;;5093001;28;20304;-78
2022/03/05 07:50:59;;;;;;;0.40;0.40;;;-0.50;99.90;;;;;;5094191;28;20083;-75
2022/03/05 07:53:26;;;;;;;0.40;0.40;;;-0.40;99.90;;;;;;5094046;28;20123;-78
2022/03/05 07:55:52;;;;;;;0.40;0.40;;;-0.30;99.90;;;;;;5093601;28;20267;-75
2022/03/05 07:58:17;;;;;;;0.40;0.40;;;-0.20;99.90;;;;;;5093906;28;20040;-78
2022/03/05 08:00:43;;;;;;;0.40;0.40;;;-0.10;99.90;;;;;;5094040;28;20502;-78
2022/03/05 08:03:08;;;;;;;0.40;0.40;;;-0.10;99.90;;;;;;5093990;28;20040;-76
2022/03/05 08:05:34;;;;;;;0.40;0.40;;;0.20;99.90;;;;;;5094166;28;20503;-80
2022/03/05 08:07:59;;;;;;;0.40;0.40;;;0.20;99.90;;;;;;5092677;28;20499;-78
2022/03/05 08:10:25;;;;;;;0.40;0.40;;;0.20;99.90;;;;;;5093881;28;20044;-80
2022/03/05 08:12:50;;;;;;;0.40;0.40;;;0.30;99.90;;;;;;5093534;28;20403;-76
2022/03/05 08:15:16;;;;;;;0.40;0.40;;;0.40;99.90;;;;;;5093736;28;20091;-77
2022/03/05 08:17:58;;;;;;;0.40;0.40;;;0.40;99.90;;;;;;5092031;28;20450;-74
2022/03/05 08:20:27;;;;;;;0.40;0.40;;;0.50;99.90;;;;;;5093371;28;20085;-74
2022/03/05 08:22:52;;;;;;;0.40;0.40;;;0.60;99.90;;;;;;5093249;28;20055;-74
2022/03/05 08:25:18;;;;;;;0.40;0.40;;;0.70;99.90;;;;;;5093202;28;20128;-73
2022/03/05 08:27:44;;;;;;;0.40;0.40;;;0.70;99.90;;;;;;5093451;28;20054;-74
2022/03/05 08:30:11;;;;;;;0.40;0.40;;;0.80;99.90;;;;;;5093760;28;20456;-83
2022/03/05 08:32:36;;;;;;;0.40;0.40;;;0.80;99.90;;;;;;5092816;28;20127;-82
2022/03/05 08:35:03;;;;;;;0.40;0.40;;;0.50;99.90;;;;;;5093948;28;20090;-82
2022/03/05 08:37:29;;;;;;;;;;;0.90;99.90;;;;;;5093714;28;20036;-85
2022/03/05 08:39:55;;;;;;;0.40;0.40;;;1.00;99.90;;;;;;5092730;28;20326;-86
2022/03/05 08:42:21;;;;;;;0.40;0.40;;;1.10;99.90;;;;;;5093670;28;20052;-81
2022/03/05 08:44:46;;;;;;;0.30;0.30;;;1.20;99.90;;;;;;5075684;28;20044;-78
2022/03/05 08:47:12;;;;;;;0.40;0.40;;;1.20;99.90;;;;;;5093502;28;20044;-78
2022/03/05 08:49:37;;;;;;;0.40;0.40;;;1.30;99.90;;;;;;5093187;28;20091;-73
2022/03/05 08:52:04;;;;;;;0.40;0.40;;;1.40;99.90;;;;;;5093030;28;20047;-75
2022/03/05 08:54:29;;;;;;;0.40;0.40;;;1.50;99.90;;;;;;5093460;28;20044;-75
2022/03/05 08:56:55;;;;;;;0.40;0.40;;;1.60;99.90;;;;;;5092707;28;20401;-75
2022/03/05 08:59:20;;;;;;;0.40;0.40;;;1.60;99.90;;;;;;5093330;28;20050;-74
2022/03/05 09:01:46;;;;;;;0.40;0.40;;;1.70;99.90;;;;;;5093003;28;20044;-75
2022/03/05 09:04:12;;;;;;;0.30;0.30;;;1.80;99.90;;;;;;5093195;28;20182;-74
2022/03/05 09:06:38;;;;;;;0.40;0.40;;;1.90;99.90;;;;;;5093004;28;20357;-76
2022/03/05 09:09:05;;;;;;;0.40;0.40;;;1.90;99.90;;;;;;5096253;28;20048;-78
2022/03/05 09:11:31;;;;;;;0.30;0.30;;;2.00;99.90;;;;;;5096530;28;20105;-77
2022/03/05 09:13:57;;;;;;;0.40;0.40;;;4.20;99.90;;;;;;5096980;28;20446;-77
2022/03/05 09:16:22;;;;;;;0.38;0.38;;;2.20;99.90;;;;;;5096837;28;20048;-74
2022/03/05 09:18:48;;;;;;;0.40;0.40;;;2.20;99.90;;;;;;5095683;28;20076;-79
2022/03/05 09:21:14;;;;;;;0.35;0.35;;;2.20;99.90;;;;;;5096424;28;20048;-79
2022/03/05 09:23:39;;;;;;;0.40;0.40;;;2.30;99.90;;;;;;5096449;28;20048;-78
2022/03/05 09:26:05;;;;;;;0.40;0.40;;;2.40;99.90;;;;;;5078422;28;20044;-76
2022/03/05 09:28:30;;;;;;;0.40;0.40;;;2.40;99.90;;;;;;5096643;28;20040;-76
2022/03/05 09:30:58;;;;;;;0.40;0.40;;;2.50;99.90;;;;;;5096585;28;20097;-77
2022/03/05 09:33:24;;;;;;;0.40;0.40;;;2.50;99.90;;;;;;5096397;28;20385;-74
2022/03/05 09:35:50;;;;;;;0.30;0.30;;;2.50;99.90;;;;;;5096363;28;20074;-76
2022/03/05 09:38:16;;;;;;;0.30;0.30;;;2.60;99.90;;;;;;5096393;28;20052;-75
2022/03/05 09:40:41;;;;;;;0.40;0.40;;;2.70;99.90;;;;;;5096081;28;20054;-76
2022/03/05 09:43:07;;;;;;;0.30;0.30;;;2.70;99.90;;;;;;5096432;28;20036;-74
2022/03/05 09:45:34;;;;;;;0.40;0.40;;;2.80;99.90;;;;;;5096303;28;20117;-76
2022/03/05 09:48:00;;;;;;;0.40;0.40;;;2.90;99.90;;;;;;5096423;28;20044;-74
2022/03/05 09:50:28;;;;;;;0.30;0.30;;;3.00;99.90;;;;;;5096280;28;20142;-75
2022/03/05 09:52:55;;;;;;;0.30;0.30;;;3.00;99.90;;;;;;5096172;28;20082;-77
2022/03/05 09:55:20;;;;;;;0.35;0.35;;;3.10;99.90;;;;;;5095876;28;20048;-76
2022/03/05 09:57:46;;;;;;;0.30;0.30;;;3.10;99.90;;;;;;5096382;28;20042;-78
2022/03/05 10:00:12;;;;;;;0.30;0.30;;;3.20;99.90;;;;;;5096316;28;20472;-77
2022/03/05 10:02:38;;;;;;;0.30;0.30;;;3.20;99.90;;;;;;5094874;28;20044;-77
2022/03/05 10:05:31;;;;;;;0.30;0.30;;;3.30;99.90;;;;;;5096259;28;20097;-75
2022/03/05 10:08:08;;;;;;;0.30;0.30;;;3.30;99.90;;;;;;5095565;28;20044;-76
2022/03/05 10:10:53;;;;;;;0.30;0.30;;;3.40;99.90;;;;;;5095647;28;20480;-74
2022/03/05 10:13:20;;;;;;;0.30;0.30;;;3.40;99.90;;;;;;5095654;28;20056;-75
2022/03/05 10:15:47;;;;;;;0.30;0.30;;;3.50;99.90;;;;;;5095843;28;20044;-75
2022/03/05 10:18:13;;;;;;;0.30;0.30;;;3.60;99.90;;;;;;5095163;28;20048;-76
2022/03/05 10:20:52;;;;;;;0.30;0.30;;;3.70;99.90;;;;;;5095528;28;20047;-77
2022/03/05 10:23:20;;;;;;;0.30;0.30;;;4.40;99.90;;;;;;5095720;28;20055;-75
2022/03/05 10:25:51;;;;;;;0.30;0.30;;;3.70;99.90;;;;;;5095171;28;20555;-76
2022/03/05 10:28:22;;;;;;;0.30;0.30;;;3.80;99.90;;;;;;5095269;28;20507;-74
2022/03/05 10:30:53;;;;;;;0.30;0.30;;;3.90;99.90;;;;;;5095478;28;20044;-74
2022/03/05 10:33:28;;;;;;;0.30;0.30;;;4.00;99.90;;;;;;5095484;28;20044;-77
2022/03/05 10:35:55;;;;;;;0.30;0.30;;;4.00;99.90;;;;;;5095149;28;20036;-77
2022/03/05 10:38:20;;;;;;;0.30;0.30;;;4.00;99.90;;;;;;5095514;28;20044;-77
2022/03/05 10:40:54;;;;;;;0.30;0.30;;;4.10;99.90;;;;;;5095227;28;20126;-75
2022/03/05 10:43:20;;;;;;;0.30;0.30;;;4.10;99.90;;;;;;5095117;28;20075;-74
2022/03/05 10:45:55;;;;;;;0.30;0.30;;;4.20;99.90;;;;;;5095002;28;20476;-76
2022/03/05 10:48:29;;;;;;;0.30;0.30;;;4.20;99.90;;;;;;5095096;28;20130;-76
2022/03/05 10:51:00;;;;;;;0.30;0.30;;;4.40;99.90;;;;;;5094936;28;20048;-76
2022/03/05 10:53:55;;;;;;;0.30;0.30;;;4.40;99.90;;;;;;5095522;28;20040;-76
2022/03/05 10:56:31;;;;;;;0.30;0.30;;;4.50;99.90;;;;;;5086014;28;20048;-77
2022/03/05 10:59:05;;;;;;;0.30;0.30;;;4.50;99.90;;;;;;5094947;28;20063;-76
2022/03/05 11:01:33;;;;;;;0.30;0.30;;;4.60;99.90;;;;;;5094648;28;20492;-77
2022/03/05 11:03:59;;;;;;;0.30;0.30;;;4.60;99.90;;;;;;5094643;28;20036;-73
2022/03/05 11:06:25;;;;;;;0.30;0.30;;;4.70;99.90;;;;;;5094196;28;20036;-76
2022/03/05 11:08:51;;;;;;;0.30;0.30;;;4.80;99.90;;;;;;5094056;28;20457;-77
2022/03/05 11:11:20;;;;;;;0.30;0.30;;;4.90;99.90;;;;;;5093946;28;20040;-78
2022/03/05 11:13:45;;;;;;;0.30;0.30;;;4.90;99.90;;;;;;5094833;28;20052;-78
2022/03/05 11:16:12;;;;;;;0.30;0.30;;;5.00;99.90;;;;;;5094396;28;20043;-77
2022/03/05 11:18:41;;;;;;;0.30;0.30;;;5.00;99.90;;;;;;5094495;28;20135;-75
2022/03/05 11:21:07;;;;;;;0.30;0.30;;;5.10;99.90;;;;;;5093073;28;20044;-76
2022/03/05 11:23:35;;;;;;;0.30;0.30;;;5.10;99.90;;;;;;5094340;28;20048;-80
2022/03/05 11:26:01;;;;;;;0.30;0.30;;;5.20;99.90;;;;;;5094411;28;20057;-76
2022/03/05 11:28:38;;;;;;;0.30;0.30;;;5.30;99.90;;;;;;5094494;28;20051;-81
2022/03/05 11:31:19;;;;;;;0.30;0.30;;;5.30;99.90;;;;;;5093638;28;20044;-80
2022/03/05 11:33:46;;;;;;;0.30;0.30;;;5.40;99.90;;;;;;5093867;28;20040;-77
2022/03/05 11:36:31;;;;;;;0.30;0.30;;;5.40;99.90;;;;;;5093035;28;20051;-78
2022/03/05 11:39:07;;;;;;;0.30;0.30;;;5.50;99.90;;;;;;5094246;28;20052;-77
2022/03/05 11:41:32;;;;;;;0.30;0.30;;;5.60;99.90;;;;;;5093875;28;20052;-77
2022/03/05 11:44:14;;;;;;;0.30;0.30;;;5.60;99.90;;;;;;5092546;28;20048;-77
2022/03/05 11:46:40;;;;;;;0.30;0.30;;;5.70;99.90;;;;;;5092883;28;20036;-77
2022/03/05 11:49:07;;;;;;;0.30;0.30;;;5.70;99.90;;;;;;5075888;28;20520;-76
2022/03/05 11:51:49;;;;;;;0.20;0.20;;;5.70;99.90;;;;;;5093079;28;20044;-76
2022/03/05 11:54:15;;;;;;;0.30;0.30;;;5.80;99.90;;;;;;5094086;28;20083;-77
2022/03/05 11:57:14;;;;;;;0.30;0.30;;;5.80;99.90;;;;;;5092902;28;20085;-78
2022/03/05 11:59:51;;;;;;;0.30;0.30;;;5.90;99.90;;;;;;5094164;28;20044;-78
2022/03/05 12:02:46;;;;;;;0.30;0.30;;;6.00;99.90;;;;;;5094040;28;20040;-77
2022/03/05 12:05:37;;;;;;;0.30;0.30;;;6.10;99.90;;;;;;5092852;28;20555;-77
2022/03/05 12:08:10;;;;;;;0.30;0.30;;;6.20;99.90;;;;;;5093909;28;20047;-78
2022/03/05 12:10:40;;;;;;;0.20;0.20;;;6.50;99.90;;;;;;5093746;28;20044;-75
2022/03/05 12:13:09;;;;;;;0.20;0.20;;;6.30;99.90;;;;;;5092273;28;20063;-77
2022/03/05 12:15:39;;;;;;;0.30;0.30;;;6.30;99.90;;;;;;5093277;28;20154;-75
2022/03/05 12:18:07;;;;;;;0.30;0.30;;;6.40;99.90;;;;;;5093588;28;20044;-75
2022/03/05 12:20:36;;;;;;;0.20;0.20;;;6.40;99.90;;;;;;5093295;28;20576;-74
2022/03/05 12:23:08;;;;;;;0.30;0.30;;;6.50;99.90;;;;;;5093384;28;20130;-75
2022/03/05 12:25:36;;;;;;;0.20;0.20;;;6.50;99.90;;;;;;5093637;28;20385;-76
2022/03/05 12:28:03;;;;;;;0.30;0.30;;;6.60;99.90;;;;;;5093129;28;20044;-74
2022/03/05 12:30:37;;;;;;;0.30;0.30;;;6.60;99.90;;;;;;5093712;28;20044;-74
2022/03/05 12:33:04;;;;;;;0.30;0.30;;;6.60;99.90;;;;;;5092329;28;20048;-74
2022/03/05 12:35:31;;;;;;;0.30;0.30;;;6.70;99.90;;;;;;5093301;28;20105;-76
2022/03/05 12:37:57;;;;;;;0.20;0.20;;;6.70;99.90;;;;;;5093482;28;20076;-76
2022/03/05 12:40:25;;;;;;;0.30;0.30;;;6.80;99.90;;;;;;5093481;28;20051;-75
2022/03/05 12:42:52;;;;;;;0.30;0.30;;;6.80;99.90;;;;;;5096618;28;20048;-75
2022/03/05 12:45:25;;;;;;;0.20;0.20;;;6.90;99.90;;;;;;5097433;28;20113;-77
2022/03/05 12:47:53;;;;;;;0.30;0.30;;;7.00;99.90;;;;;;5097430;28;20076;-80
2022/03/05 12:50:24;;;;;;;0.20;0.20;;;7.00;99.90;;;;;;5097204;28;20050;-76
2022/03/05 12:53:16;;;;;;;0.30;0.30;;;7.00;99.90;;;;;;5097342;28;20055;-76